createdAt,value
2023-01-02T00:00:22.532Z,3.92
2023-01-02T00:02:49.567Z,3.72
2023-01-02T00:05:16.648Z,3.25
2023-01-02T00:07:43.495Z,2.95
2023-01-02T00:10:10.566Z,3.08
2023-01-02T00:12:37.417Z,2.55
2023-01-02T00:15:05.353Z,2.53
2023-01-02T00:17:32.259Z,2.28
2023-01-02T00:19:59.194Z,2.80
2023-01-02T00:22:26.001Z,2.30
2023-01-02T00:24:52.803Z,2.20
2023-01-02T00:27:19.676Z,2.50
2023-01-02T00:29:46.557Z,2.40
2023-01-02T00:32:13.493Z,3.00
2023-01-02T00:34:40.368Z,1.98
2023-01-02T00:37:07.231Z,2.50
2023-01-02T00:39:34.066Z,3.17
2023-01-02T00:42:00.876Z,3.40
2023-01-02T00:44:27.713Z,3.88
2023-01-02T00:46:54.603Z,3.63
2023-01-02T00:49:21.563Z,2.97
2023-01-02T00:51:48.441Z,3.25
2023-01-02T00:54:15.262Z,2.53
2023-01-02T00:56:42.072Z,4.93
2023-01-02T00:59:08.946Z,2.80
2023-01-02T01:01:36.115Z,2.40
2023-01-02T01:04:03.390Z,2.40
2023-01-02T01:06:30.191Z,1.95
2023-01-02T01:08:57.069Z,2.40
2023-01-02T01:11:23.915Z,2.05
2023-01-02T01:13:52.309Z,2.45
2023-01-02T01:16:20.584Z,1.90
2023-01-02T01:18:47.620Z,2.35
2023-01-02T01:21:17.123Z,2.47
2023-01-02T01:23:44.623Z,2.17
2023-01-02T01:26:13.020Z,1.83
2023-01-02T01:28:40.727Z,1.80
2023-01-02T01:31:10.909Z,1.77
2023-01-02T01:33:38.435Z,1.45
2023-01-02T01:36:07.544Z,1.40
2023-01-02T01:38:35.214Z,1.30
2023-01-02T01:41:02.704Z,1.92
2023-01-02T01:43:52.515Z,1.40
2023-01-02T01:46:31.340Z,1.60
2023-01-02T01:49:04.532Z,1.80
2023-01-02T01:51:34.367Z,1.70
2023-01-02T01:54:13.585Z,1.80
2023-01-02T01:56:47.426Z,1.60
2023-01-02T01:59:14.688Z,1.40
2023-01-02T02:01:43.305Z,1.67
2023-01-02T02:04:11.551Z,1.80
2023-01-02T02:06:39.252Z,1.80
2023-01-02T02:09:21.740Z,2.20
2023-01-02T02:11:48.975Z,2.08
2023-01-02T02:14:15.951Z,2.05
2023-01-02T02:16:51.651Z,2.00
2023-01-02T02:19:21.572Z,2.70
2023-01-02T02:22:18.536Z,2.75
2023-01-02T02:25:28.371Z,3.10
2023-01-02T02:28:22.855Z,2.30
2023-01-02T02:31:13.239Z,2.33
2023-01-02T02:34:15.142Z,1.98
2023-01-02T02:37:08.173Z,2.30
2023-01-02T02:40:01.979Z,2.95
2023-01-02T02:42:42.220Z,2.35
2023-01-02T02:45:41.338Z,2.50
2023-01-02T02:48:26.542Z,3.10
2023-01-02T02:51:20.144Z,2.85
2023-01-02T02:53:53.990Z,2.97
2023-01-02T02:56:23.773Z,2.92
2023-01-02T02:58:51.368Z,2.58
2023-01-02T03:01:19.585Z,2.53
2023-01-02T03:03:46.480Z,2.65
2023-01-02T03:06:19.039Z,3.05
2023-01-02T03:09:18.403Z,2.40
2023-01-02T03:11:50.146Z,2.70
2023-01-02T03:16:56.745Z,2.03
2023-01-02T03:19:43.688Z,2.65
2023-01-02T03:22:23.532Z,2.65
2023-01-02T03:24:54.280Z,3.40
2023-01-02T03:27:28.602Z,3.53
2023-01-02T03:30:04.516Z,3.60
2023-01-02T03:32:35.454Z,4.03
2023-01-02T03:35:08.445Z,3.95
2023-01-02T03:37:39.844Z,4.63
2023-01-02T03:40:21.024Z,4.95
2023-01-02T03:43:03.467Z,4.82
2023-01-02T03:45:34.495Z,5.53
2023-01-02T03:48:34.694Z,5.15
2023-01-02T03:51:03.732Z,4.75
2023-01-02T03:53:32.231Z,5.07
2023-01-02T03:56:18.061Z,5.82
2023-01-02T03:59:06.154Z,6.63
2023-01-02T04:01:39.159Z,6.95
2023-01-02T04:04:20.861Z,8.68
2023-01-02T04:06:51.673Z,8.93
2023-01-02T04:09:24.541Z,9.18
2023-01-02T04:11:56.540Z,9.70
2023-01-02T04:14:36.106Z,10.27
2023-01-02T04:17:08.356Z,18.65
2023-01-02T04:19:48.832Z,18.67
2023-01-02T04:22:27.910Z,16.90
2023-01-02T04:25:03.432Z,14.65
2023-01-02T04:27:36.461Z,12.95
2023-01-02T04:30:03.741Z,13.27
2023-01-02T04:32:49.476Z,12.68
2023-01-02T04:35:19.616Z,11.18
2023-01-02T04:37:47.431Z,10.32
2023-01-02T04:40:23.090Z,10.38
2023-01-02T04:42:50.042Z,10.23
2023-01-02T04:45:17.610Z,9.13
2023-01-02T04:47:44.691Z,9.23
2023-01-02T04:50:11.796Z,8.65
2023-01-02T04:52:38.692Z,8.85
2023-01-02T04:55:09.786Z,8.70
2023-01-02T04:57:37.582Z,8.15
2023-01-02T05:00:06.428Z,8.38
2023-01-02T05:02:40.769Z,7.93
2023-01-02T05:05:09.044Z,7.03
2023-01-02T05:07:37.151Z,7.32
2023-01-02T05:10:05.292Z,7.10
2023-01-02T05:12:36.298Z,6.45
2023-01-02T05:15:04.973Z,6.22
2023-01-02T05:17:49.954Z,6.90
2023-01-02T05:20:16.909Z,7.20
2023-01-02T05:23:03.046Z,6.35
2023-01-02T05:25:34.998Z,5.53
2023-01-02T05:28:03.052Z,6.32
2023-01-02T05:30:30.065Z,6.18
2023-01-02T05:32:56.957Z,5.03
2023-01-02T05:35:28.621Z,5.53
2023-01-02T05:37:59.157Z,5.72
2023-01-02T05:40:26.040Z,5.82
2023-01-02T05:42:52.945Z,5.03
2023-01-02T05:45:19.814Z,5.63
2023-01-02T05:47:46.694Z,5.05
2023-01-02T05:50:13.571Z,4.85
2023-01-02T05:52:45.540Z,5.00
2023-01-02T05:55:13.108Z,4.70
2023-01-02T05:57:40.106Z,4.80
2023-01-02T06:00:07.585Z,4.70
2023-01-02T06:02:34.734Z,4.50
2023-01-02T06:05:01.713Z,4.05
2023-01-02T06:07:28.490Z,4.07
2023-01-02T06:09:55.384Z,4.35
2023-01-02T06:12:22.255Z,3.75
2023-01-02T06:14:49.049Z,3.03
2023-01-02T06:17:15.841Z,3.47
2023-01-02T06:19:44.236Z,4.00
2023-01-02T06:22:12.986Z,3.42
2023-01-02T06:24:39.884Z,3.00
2023-01-02T06:27:06.767Z,3.70
2023-01-02T06:29:33.594Z,3.75
2023-01-02T06:32:00.542Z,3.40
2023-01-02T06:34:27.383Z,3.63
2023-01-02T06:36:54.202Z,6.15
2023-01-02T06:39:21.135Z,7.30
2023-01-02T06:41:48.212Z,9.45
2023-01-02T06:44:15.165Z,6.82
2023-01-02T06:46:42.025Z,6.30
2023-01-02T06:49:08.888Z,4.25
2023-01-02T06:51:35.843Z,5.35
2023-01-02T06:54:02.707Z,5.07
2023-01-02T06:56:29.561Z,5.60
2023-01-02T06:58:56.482Z,4.03
2023-01-02T07:01:23.967Z,4.18
2023-01-02T07:03:51.011Z,3.60
2023-01-02T07:06:22.121Z,3.25
2023-01-02T07:08:49.653Z,3.13
2023-01-02T07:11:22.186Z,3.25
2023-01-02T07:13:51.267Z,3.10
2023-01-02T07:16:20.328Z,3.05
2023-01-02T07:18:47.449Z,3.10
2023-01-02T07:21:16.718Z,3.70
2023-01-02T07:23:43.614Z,4.00
2023-01-02T07:26:11.226Z,3.47
2023-01-02T07:28:38.796Z,4.57
2023-01-02T07:31:08.902Z,4.93
2023-01-02T07:33:35.995Z,4.43
2023-01-02T07:36:05.835Z,4.85
2023-01-02T07:38:35.226Z,5.15
2023-01-02T07:41:02.182Z,4.95
2023-01-02T07:43:29.014Z,5.70
2023-01-02T07:46:01.730Z,5.40
2023-01-02T07:48:30.292Z,5.35
2023-01-02T07:51:04.565Z,6.00
2023-01-02T07:53:31.912Z,5.78
2023-01-02T07:55:59.707Z,5.25
2023-01-02T07:58:26.610Z,5.75
2023-01-02T08:00:58.358Z,5.57
2023-01-02T08:03:28.380Z,5.85
2023-01-02T08:05:55.233Z,6.32
2023-01-02T08:08:22.051Z,7.85
2023-01-02T08:10:48.876Z,7.28
2023-01-02T08:13:15.750Z,6.93
2023-01-02T08:15:42.583Z,7.75
2023-01-02T08:18:09.448Z,7.00
2023-01-02T08:20:36.353Z,8.20
2023-01-02T08:23:03.214Z,7.47
2023-01-02T08:25:30.098Z,8.27
2023-01-02T08:27:56.919Z,8.38
2023-01-02T08:30:23.726Z,7.90
2023-01-02T08:32:50.563Z,8.18
2023-01-02T08:35:17.488Z,7.70
2023-01-02T08:37:50.091Z,8.23
2023-01-02T08:40:17.425Z,7.45
2023-01-02T08:42:44.325Z,7.85
2023-01-02T08:45:11.291Z,8.13
2023-01-02T08:47:38.092Z,7.95
2023-01-02T08:50:05.291Z,7.65
2023-01-02T08:52:32.141Z,8.40
2023-01-02T08:55:00.856Z,7.82
2023-01-02T08:57:27.699Z,8.27
2023-01-02T08:59:54.513Z,7.30
2023-01-02T09:02:21.475Z,7.15
2023-01-02T09:04:48.439Z,7.28
2023-01-02T09:07:15.518Z,13.02
2023-01-02T09:09:42.328Z,8.05
2023-01-02T09:12:09.517Z,7.82
2023-01-02T09:14:36.372Z,7.32
2023-01-02T09:17:03.271Z,7.07
2023-01-02T09:19:30.327Z,6.63
2023-01-02T09:21:57.235Z,6.63
2023-01-02T09:24:24.050Z,6.32
2023-01-02T09:26:50.925Z,6.03
2023-01-02T09:29:18.009Z,6.18
2023-01-02T09:31:45.088Z,6.82
2023-01-02T09:34:12.829Z,6.35
2023-01-02T09:36:40.081Z,6.32
2023-01-02T09:39:06.977Z,6.03
2023-01-02T09:41:43.782Z,6.00
2023-01-02T09:44:23.923Z,5.70
2023-01-02T09:46:56.535Z,6.15
2023-01-02T09:49:27.352Z,7.03
2023-01-02T09:51:54.514Z,7.10
2023-01-02T09:54:28.338Z,6.25
2023-01-02T09:57:06.936Z,7.47
2023-01-02T09:59:42.379Z,8.05
2023-01-02T10:02:23.582Z,8.13
2023-01-02T10:04:53.305Z,9.25
2023-01-02T10:07:35.259Z,11.18
2023-01-02T10:10:10.713Z,15.57
2023-01-02T10:13:03.133Z,13.48
2023-01-02T10:15:31.550Z,11.63
2023-01-02T10:18:14.737Z,12.07
2023-01-02T10:20:46.629Z,10.73
2023-01-02T10:23:22.747Z,11.32
2023-01-02T10:26:00.580Z,11.27
2023-01-02T10:28:46.086Z,12.20
2023-01-02T10:31:22.719Z,12.68
2023-01-02T10:34:00.322Z,12.32
2023-01-02T10:36:39.427Z,11.98
2023-01-02T10:39:12.019Z,11.23
2023-01-02T10:41:40.797Z,11.63
2023-01-02T10:44:16.889Z,10.80
2023-01-02T10:46:43.825Z,10.50
2023-01-02T10:49:12.583Z,11.05
2023-01-02T10:51:47.893Z,9.93
2023-01-02T10:54:14.739Z,11.30
2023-01-02T10:56:45.272Z,11.38
2023-01-02T10:59:27.924Z,11.73
2023-01-02T11:02:00.175Z,10.80
2023-01-02T11:04:29.628Z,11.20
2023-01-02T11:07:02.145Z,10.10
2023-01-02T11:09:29.023Z,10.55
2023-01-02T11:12:07.939Z,10.20
2023-01-02T11:14:37.105Z,10.57
2023-01-02T11:17:13.803Z,10.18
2023-01-02T11:19:48.059Z,9.05
2023-01-02T11:22:17.805Z,8.30
2023-01-02T11:25:02.004Z,8.70
2023-01-02T11:27:31.979Z,8.75
2023-01-02T11:29:59.353Z,9.05
2023-01-02T11:32:44.508Z,8.90
2023-01-02T11:35:37.425Z,9.27
2023-01-02T11:38:04.610Z,8.68
2023-01-02T11:40:32.306Z,9.38
2023-01-02T11:43:26.142Z,7.43
2023-01-02T11:45:53.560Z,7.68
2023-01-02T11:48:23.866Z,7.53
2023-01-02T11:50:51.071Z,7.72
2023-01-02T11:53:25.042Z,6.57
2023-01-02T11:56:14.009Z,7.90
2023-01-02T11:58:48.661Z,7.55
2023-01-02T12:01:35.908Z,7.65
2023-01-02T12:04:02.853Z,8.55
2023-01-02T12:07:07.298Z,7.68
2023-01-02T12:09:49.332Z,8.00
2023-01-02T12:12:31.470Z,7.72
2023-01-02T12:15:07.270Z,8.20
2023-01-02T12:17:48.470Z,8.20
2023-01-02T12:20:26.517Z,8.13
2023-01-02T12:23:01.663Z,8.02
2023-01-02T12:26:12.668Z,7.45
2023-01-02T12:29:05.715Z,7.20
2023-01-02T12:31:32.536Z,7.80
2023-01-02T12:34:24.191Z,10.88
2023-01-02T12:37:21.953Z,9.32
2023-01-02T12:39:55.158Z,9.48
2023-01-02T12:42:25.091Z,8.85
2023-01-02T12:44:59.752Z,10.00
2023-01-02T12:47:45.003Z,11.35
2023-01-02T12:50:33.589Z,12.45
2023-01-02T12:53:20.259Z,13.93
2023-01-02T12:55:49.896Z,14.63
2023-01-02T12:58:22.396Z,18.42
2023-01-02T13:00:58.919Z,16.58
2023-01-02T13:03:34.941Z,16.00
2023-01-02T13:06:44.497Z,14.57
2023-01-02T13:09:18.342Z,12.95
2023-01-02T13:11:52.078Z,12.82
2023-01-02T13:14:22.371Z,13.20
2023-01-02T13:16:57.855Z,13.95
2023-01-02T13:19:36.739Z,14.20
2023-01-02T13:22:29.609Z,12.13
2023-01-02T13:24:57.975Z,17.25
2023-01-02T13:27:25.334Z,11.45
2023-01-02T13:29:53.488Z,13.73
2023-01-02T13:32:28.778Z,13.60
2023-01-02T13:34:59.017Z,13.32
2023-01-02T13:37:28.760Z,12.40
2023-01-02T13:40:02.577Z,13.85
2023-01-02T13:42:54.072Z,14.35
2023-01-02T13:45:39.686Z,11.70
2023-01-02T13:48:33.876Z,11.70
2023-01-02T13:51:20.984Z,11.20
2023-01-02T13:53:50.086Z,11.45
2023-01-02T13:56:19.577Z,11.10
2023-01-02T13:58:50.950Z,11.18
2023-01-02T14:01:24.093Z,12.90
2023-01-02T14:04:15.817Z,11.70
2023-01-02T14:06:48.570Z,8.40
2023-01-02T14:09:21.125Z,11.63
2023-01-02T14:11:56.946Z,9.90
2023-01-02T14:14:34.778Z,12.02
2023-01-02T14:17:32.398Z,10.43
2023-01-02T14:20:34.667Z,10.05
2023-01-02T14:23:10.993Z,9.70
2023-01-02T14:25:49.835Z,9.43
2023-01-02T14:28:29.803Z,9.90
2023-01-02T14:30:58.293Z,13.57
2023-01-02T14:33:43.436Z,12.43
2023-01-02T14:36:12.195Z,12.88
2023-01-02T14:38:52.409Z,13.15
2023-01-02T14:42:09.045Z,14.48
2023-01-02T14:44:42.766Z,15.63
2023-01-02T14:47:34.416Z,16.60
2023-01-02T14:50:04.331Z,16.48
2023-01-02T14:52:35.790Z,17.20
2023-01-02T14:55:08.973Z,12.85
2023-01-02T14:57:38.964Z,13.35
2023-01-02T15:00:11.955Z,10.63
2023-01-02T15:02:44.541Z,12.95
2023-01-02T15:05:26.519Z,12.00
2023-01-02T15:07:56.317Z,12.32
2023-01-02T15:10:23.954Z,10.60
2023-01-02T15:13:06.325Z,10.93
2023-01-02T15:15:45.404Z,11.38
2023-01-02T15:18:23.558Z,8.75
2023-01-02T15:20:51.475Z,9.10
2023-01-02T15:23:23.363Z,8.90
2023-01-02T15:25:50.894Z,9.13
2023-01-02T15:28:28.178Z,8.02
2023-01-02T15:30:59.035Z,11.10
2023-01-02T15:33:28.313Z,10.17
2023-01-02T15:36:18.114Z,9.15
2023-01-02T15:38:45.387Z,8.48
2023-01-02T15:41:19.793Z,8.63
2023-01-02T15:44:06.379Z,7.15
2023-01-02T15:46:34.246Z,7.57
2023-01-02T15:49:02.991Z,5.03
2023-01-02T15:51:40.324Z,7.88
2023-01-02T15:54:13.994Z,7.03
2023-01-02T15:56:41.543Z,8.45
2023-01-02T15:59:23.583Z,7.55
2023-01-02T16:01:50.685Z,7.93
2023-01-02T16:04:32.209Z,7.97
2023-01-02T16:07:12.931Z,8.10
2023-01-02T16:09:42.825Z,6.70
2023-01-02T16:12:21.857Z,7.18
2023-01-02T16:14:53.458Z,6.13
2023-01-02T16:17:28.114Z,6.07
2023-01-02T16:20:02.428Z,6.50
2023-01-02T16:22:48.195Z,8.63
2023-01-02T16:25:26.828Z,6.25
2023-01-02T16:28:01.966Z,6.97
2023-01-02T16:30:40.828Z,6.32
2023-01-02T16:33:30.415Z,5.50
2023-01-02T16:36:08.756Z,5.80
2023-01-02T16:38:50.413Z,5.65
2023-01-02T16:41:37.097Z,5.97
2023-01-02T16:44:12.959Z,4.95
2023-01-02T16:46:41.270Z,4.95
2023-01-02T16:49:11.502Z,4.70
2023-01-02T16:51:42.712Z,4.55
2023-01-02T16:54:17.207Z,3.38
2023-01-02T16:56:44.073Z,5.57
2023-01-02T16:59:11.260Z,6.28
2023-01-02T17:01:38.271Z,6.43
2023-01-02T17:04:05.376Z,6.38
2023-01-02T17:06:32.429Z,6.30
2023-01-02T17:08:59.249Z,5.47
2023-01-02T17:11:26.173Z,6.35
2023-01-02T17:13:53.211Z,6.10
2023-01-02T17:16:20.490Z,6.50
2023-01-02T17:18:47.380Z,5.22
2023-01-02T17:21:14.593Z,5.40
2023-01-02T17:23:41.666Z,6.85
2023-01-02T17:26:08.489Z,6.35
2023-01-02T17:28:35.361Z,5.97
2023-01-02T17:31:02.222Z,5.10
2023-01-02T17:33:29.085Z,4.75
2023-01-02T17:35:56.733Z,5.18
2023-01-02T17:38:23.595Z,5.40
2023-01-02T17:40:56.744Z,4.43
2023-01-02T17:43:23.572Z,4.40
2023-01-02T17:45:50.450Z,4.82
2023-01-02T17:48:23.664Z,5.43
2023-01-02T17:50:52.848Z,4.38
2023-01-02T17:53:19.735Z,6.85
2023-01-02T17:56:21.375Z,5.22
2023-01-02T17:58:45.689Z,4.72
2023-01-02T18:01:20.971Z,4.47
2023-01-02T18:03:48.373Z,5.18
2023-01-02T18:06:16.352Z,5.15
2023-01-02T18:08:43.698Z,6.53
2023-01-02T18:11:13.772Z,7.03
2023-01-02T18:13:50.431Z,8.45
2023-01-02T18:16:21.612Z,7.15
2023-01-02T18:18:49.892Z,8.20
2023-01-02T18:21:23.383Z,7.45
2023-01-02T18:23:55.810Z,6.72
2023-01-02T18:26:24.243Z,8.07
2023-01-02T18:29:09.370Z,7.53
2023-01-02T18:31:42.461Z,9.85
2023-01-02T18:34:46.899Z,6.93
2023-01-02T18:37:39.868Z,6.97
2023-01-02T18:40:18.551Z,6.45
2023-01-02T18:42:53.747Z,6.20
2023-01-02T18:45:21.458Z,6.18
2023-01-02T18:47:55.953Z,5.70
2023-01-02T18:50:31.596Z,7.53
2023-01-02T18:52:58.710Z,8.45
2023-01-02T18:55:28.364Z,9.55
2023-01-02T18:58:19.450Z,9.65
2023-01-02T19:00:46.470Z,9.43
2023-01-02T19:03:25.469Z,10.43
2023-01-02T19:05:52.349Z,9.60
2023-01-02T19:08:23.228Z,8.70
2023-01-02T19:10:53.245Z,8.27
2023-01-02T19:13:26.597Z,7.35
2023-01-02T19:15:58.053Z,5.78
2023-01-02T19:18:33.519Z,5.97
2023-01-02T19:21:09.610Z,5.10
2023-01-02T19:23:47.356Z,5.38
2023-01-02T19:26:24.056Z,5.22
2023-01-02T19:29:12.131Z,5.45
2023-01-02T19:31:43.328Z,4.43
2023-01-02T19:34:27.969Z,5.97
2023-01-02T19:37:07.542Z,8.10
2023-01-02T19:39:36.243Z,6.13
2023-01-02T19:42:21.968Z,4.82
2023-01-02T19:44:53.706Z,3.40
2023-01-02T19:49:49.339Z,5.35
2023-01-02T19:52:16.156Z,5.28
2023-01-02T19:54:43.958Z,5.47
2023-01-02T19:57:12.044Z,5.43
2023-01-02T19:59:43.748Z,6.32
2023-01-02T20:02:11.599Z,6.78
2023-01-02T20:04:38.905Z,4.70
2023-01-02T20:07:06.409Z,5.70
2023-01-02T20:09:33.517Z,6.40
2023-01-02T20:12:19.661Z,8.63
2023-01-02T20:14:46.875Z,7.20
2023-01-02T20:17:13.808Z,7.13
2023-01-02T20:19:40.850Z,6.03
2023-01-02T20:22:08.080Z,6.75
2023-01-02T20:24:34.991Z,6.97
2023-01-02T20:27:03.397Z,6.40
2023-01-02T20:29:31.294Z,6.35
2023-01-02T20:31:58.938Z,7.60
2023-01-02T20:34:26.388Z,8.00
2023-01-02T20:36:53.880Z,7.38
2023-01-02T20:39:20.939Z,7.63
2023-01-02T20:41:47.823Z,9.57
2023-01-02T20:44:15.104Z,9.65
2023-01-02T20:46:42.360Z,11.95
2023-01-02T20:49:10.207Z,14.02
2023-01-02T20:51:37.376Z,13.48
2023-01-02T20:54:04.997Z,16.83
2023-01-02T20:56:32.179Z,15.57
2023-01-02T20:58:59.273Z,17.60
2023-01-02T21:01:26.670Z,17.75
2023-01-02T21:03:54.039Z,18.38
2023-01-02T21:06:21.479Z,16.70
2023-01-02T21:08:48.378Z,17.50
2023-01-02T21:11:15.365Z,17.50
2023-01-02T21:13:42.195Z,17.58
2023-01-02T21:16:09.098Z,16.00
2023-01-02T21:18:38.452Z,16.40
2023-01-02T21:21:10.421Z,15.95
2023-01-02T21:23:40.117Z,16.73
2023-01-02T21:26:09.009Z,16.35
2023-01-02T21:28:36.680Z,16.63
2023-01-02T21:31:04.500Z,16.48
2023-01-02T21:33:31.603Z,17.05
2023-01-02T21:36:00.641Z,16.92
2023-01-02T21:38:28.190Z,16.50
2023-01-02T21:40:56.429Z,16.88
2023-01-02T21:43:23.274Z,16.23
2023-01-02T21:45:50.447Z,17.17
2023-01-02T21:48:17.256Z,15.82
2023-01-02T21:50:44.082Z,15.60
2023-01-02T21:53:10.979Z,16.10
2023-01-02T21:55:37.894Z,15.80
2023-01-02T21:58:13.269Z,16.10
2023-01-02T22:00:41.124Z,15.45
2023-01-02T22:03:08.143Z,15.02
2023-01-02T22:05:35.315Z,13.88
2023-01-02T22:08:02.197Z,13.70
2023-01-02T22:10:29.211Z,12.57
2023-01-02T22:12:56.126Z,12.65
2023-01-02T22:15:23.082Z,13.70
2023-01-02T22:17:50.136Z,12.75
2023-01-02T22:20:17.189Z,11.65
2023-01-02T22:22:44.078Z,11.38
2023-01-02T22:25:11.306Z,10.00
2023-01-02T22:27:38.575Z,9.70
2023-01-02T22:30:29.445Z,9.18
2023-01-02T22:32:54.236Z,8.82
2023-01-02T22:35:21.061Z,7.80
2023-01-02T22:37:47.990Z,8.85
2023-01-02T22:40:14.968Z,7.95
2023-01-02T22:43:03.897Z,8.32
2023-01-02T22:45:41.040Z,7.50
2023-01-02T22:48:16.970Z,7.40
2023-01-02T22:50:45.628Z,8.10
2023-01-02T22:53:32.262Z,7.30
2023-01-02T22:56:01.283Z,6.65
2023-01-02T22:58:28.563Z,6.47
2023-01-02T23:01:11.341Z,5.70
2023-01-02T23:03:40.884Z,5.93
2023-01-02T23:06:07.713Z,5.85
2023-01-02T23:08:34.876Z,6.25
2023-01-02T23:11:02.006Z,5.88
2023-01-02T23:13:28.993Z,5.47
2023-01-02T23:16:14.306Z,5.15
2023-01-02T23:18:59.824Z,5.22
2023-01-02T23:21:28.140Z,5.72
2023-01-02T23:23:55.452Z,6.20
2023-01-02T23:26:25.768Z,7.05
2023-01-02T23:29:08.866Z,6.00
2023-01-02T23:31:42.929Z,5.63
2023-01-02T23:34:12.036Z,5.45
2023-01-02T23:36:39.602Z,5.78
2023-01-02T23:39:08.385Z,5.45
2023-01-02T23:41:35.734Z,5.90
2023-01-02T23:44:02.554Z,5.57
2023-01-02T23:46:29.518Z,5.63
2023-01-02T23:48:56.489Z,6.03
2023-01-02T23:51:23.428Z,5.55
2023-01-02T23:53:50.263Z,5.50
2023-01-02T23:56:20.173Z,5.72
2023-01-02T23:58:49.136Z,5.63
